sensor_id;sensor_type;location;lat;lon;timestamp;temperature;humidity
23259;DHT22;11798;51.528;7.240;2022-10-20T00:00:55;7.90;99.90
23259;DHT22;11798;51.528;7.240;2022-10-20T00:03:21;7.90;99.90
23259;DHT22;11798;51.528;7.240;2022-10-20T00:05:46;7.90;99.90
23259;DHT22;11798;51.528;7.240;2022-10-20T00:08:12;7.90;99.90
23259;DHT22;11798;51.528;7.240;2022-10-20T00:10:38;7.90;99.90
23259;DHT22;11798;51.528;7.240;2022-10-20T00:13:03;7.90;99.90
23259;DHT22;11798;51.528;7.240;2022-10-20T00:15:29;7.90;99.90
23259;DHT22;11798;51.528;7.240;2022-10-20T00:17:54;7.90;99.90
23259;DHT22;11798;51.528;7.240;2022-10-20T00:20:20;7.80;99.90
23259;DHT22;11798;51.528;7.240;2022-10-20T00:22:46;7.80;99.90
23259;DHT22;11798;51.528;7.240;2022-10-20T00:25:11;7.90;99.90
23259;DHT22;11798;51.528;7.240;2022-10-20T00:27:37;7.90;99.90
23259;DHT22;11798;51.528;7.240;2022-10-20T00:30:03;7.90;99.90
23259;DHT22;11798;51.528;7.240;2022-10-20T00:32:28;7.90;99.90
23259;DHT22;11798;51.528;7.240;2022-10-20T00:34:54;7.90;99.90
23259;DHT22;11798;51.528;7.240;2022-10-20T00:37:20;7.90;99.90
23259;DHT22;11798;51.528;7.240;2022-10-20T00:39:46;7.90;99.90
23259;DHT22;11798;51.528;7.240;2022-10-20T00:42:16;7.90;99.90
23259;DHT22;11798;51.528;7.240;2022-10-20T00:44:58;7.90;99.90
23259;DHT22;11798;51.528;7.240;2022-10-20T00:47:40;7.90;99.90
23259;DHT22;11798;51.528;7.240;2022-10-20T00:50:13;7.90;99.90
23259;DHT22;11798;51.528;7.240;2022-10-20T00:52:40;7.90;99.90
23259;DHT22;11798;51.528;7.240;2022-10-20T00:55:08;7.80;99.90
23259;DHT22;11798;51.528;7.240;2022-10-20T00:57:34;7.80;99.90
23259;DHT22;11798;51.528;7.240;2022-10-20T01:00:00;7.80;99.90
23259;DHT22;11798;51.528;7.240;2022-10-20T01:02:26;7.90;99.90
23259;DHT22;11798;51.528;7.240;2022-10-20T01:04:52;7.80;99.90
23259;DHT22;11798;51.528;7.240;2022-10-20T01:07:17;7.80;99.90
23259;DHT22;11798;51.528;7.240;2022-10-20T01:09:43;7.80;99.90
23259;DHT22;11798;51.528;7.240;2022-10-20T01:17:40;7.70;99.90
23259;DHT22;11798;51.528;7.240;2022-10-20T01:25:17;7.70;99.90
23259;DHT22;11798;51.528;7.240;2022-10-20T01:27:52;7.70;99.90
23259;DHT22;11798;51.528;7.240;2022-10-20T01:30:21;7.80;99.90
23259;DHT22;11798;51.528;7.240;2022-10-20T01:33:04;7.80;99.90
23259;DHT22;11798;51.528;7.240;2022-10-20T01:38:18;7.80;99.90
23259;DHT22;11798;51.528;7.240;2022-10-20T01:40:59;7.80;99.90
23259;DHT22;11798;51.528;7.240;2022-10-20T01:43:28;7.80;99.90
23259;DHT22;11798;51.528;7.240;2022-10-20T01:45:56;7.80;99.90
23259;DHT22;11798;51.528;7.240;2022-10-20T01:48:26;7.80;99.90
23259;DHT22;11798;51.528;7.240;2022-10-20T01:50:53;7.80;99.90
23259;DHT22;11798;51.528;7.240;2022-10-20T01:53:19;7.70;99.90
23259;DHT22;11798;51.528;7.240;2022-10-20T01:55:49;7.70;99.90
23259;DHT22;11798;51.528;7.240;2022-10-20T02:00:50;7.60;99.90
23259;DHT22;11798;51.528;7.240;2022-10-20T02:09:06;7.50;99.90
23259;DHT22;11798;51.528;7.240;2022-10-20T02:14:02;7.50;99.90
23259;DHT22;11798;51.528;7.240;2022-10-20T02:16:32;7.60;99.90
23259;DHT22;11798;51.528;7.240;2022-10-20T02:19:00;7.60;99.90
23259;DHT22;11798;51.528;7.240;2022-10-20T02:21:26;7.60;99.90
23259;DHT22;11798;51.528;7.240;2022-10-20T02:23:53;7.60;99.90
23259;DHT22;11798;51.528;7.240;2022-10-20T02:26:22;7.70;99.90
23259;DHT22;11798;51.528;7.240;2022-10-20T02:28:54;7.70;99.90
23259;DHT22;11798;51.528;7.240;2022-10-20T02:31:22;7.50;99.90
23259;DHT22;11798;51.528;7.240;2022-10-20T02:33:48;7.50;99.90
23259;DHT22;11798;51.528;7.240;2022-10-20T02:36:19;7.40;99.90
23259;DHT22;11798;51.528;7.240;2022-10-20T02:38:49;7.50;99.90
23259;DHT22;11798;51.528;7.240;2022-10-20T02:41:14;7.50;99.90
23259;DHT22;11798;51.528;7.240;2022-10-20T02:43:40;7.40;99.90
23259;DHT22;11798;51.528;7.240;2022-10-20T02:46:05;7.40;99.90
23259;DHT22;11798;51.528;7.240;2022-10-20T02:48:31;7.30;99.90
23259;DHT22;11798;51.528;7.240;2022-10-20T02:50:57;7.40;99.90
23259;DHT22;11798;51.528;7.240;2022-10-20T02:53:22;7.40;99.90
23259;DHT22;11798;51.528;7.240;2022-10-20T02:55:48;7.40;99.90
23259;DHT22;11798;51.528;7.240;2022-10-20T02:58:14;7.50;99.90
23259;DHT22;11798;51.528;7.240;2022-10-20T03:00:39;7.50;99.90
23259;DHT22;11798;51.528;7.240;2022-10-20T03:03:05;7.50;99.90
23259;DHT22;11798;51.528;7.240;2022-10-20T03:05:30;7.50;99.90
23259;DHT22;11798;51.528;7.240;2022-10-20T03:07:56;7.50;99.90
23259;DHT22;11798;51.528;7.240;2022-10-20T03:10:21;7.50;99.90
23259;DHT22;11798;51.528;7.240;2022-10-20T03:12:47;7.50;99.90
23259;DHT22;11798;51.528;7.240;2022-10-20T03:15:13;7.50;99.90
23259;DHT22;11798;51.528;7.240;2022-10-20T03:17:39;7.60;99.90
23259;DHT22;11798;51.528;7.240;2022-10-20T03:20:05;7.50;99.90
23259;DHT22;11798;51.528;7.240;2022-10-20T03:22:31;7.50;99.90
23259;DHT22;11798;51.528;7.240;2022-10-20T03:24:56;7.50;99.90
23259;DHT22;11798;51.528;7.240;2022-10-20T03:27:22;7.50;99.90
23259;DHT22;11798;51.528;7.240;2022-10-20T03:29:47;7.50;99.90
23259;DHT22;11798;51.528;7.240;2022-10-20T03:32:13;7.50;99.90
23259;DHT22;11798;51.528;7.240;2022-10-20T03:34:39;7.50;99.90
23259;DHT22;11798;51.528;7.240;2022-10-20T03:37:04;7.50;99.90
23259;DHT22;11798;51.528;7.240;2022-10-20T03:39:30;7.50;99.90
23259;DHT22;11798;51.528;7.240;2022-10-20T03:41:56;7.40;99.90
23259;DHT22;11798;51.528;7.240;2022-10-20T03:44:22;7.40;99.90
23259;DHT22;11798;51.528;7.240;2022-10-20T03:46:48;7.50;99.90
23259;DHT22;11798;51.528;7.240;2022-10-20T03:49:13;7.50;99.90
23259;DHT22;11798;51.528;7.240;2022-10-20T03:51:39;7.50;99.90
23259;DHT22;11798;51.528;7.240;2022-10-20T03:54:04;7.50;99.90
23259;DHT22;11798;51.528;7.240;2022-10-20T03:56:30;7.40;99.90
23259;DHT22;11798;51.528;7.240;2022-10-20T03:58:56;7.40;99.90
23259;DHT22;11798;51.528;7.240;2022-10-20T04:01:29;7.40;99.90
23259;DHT22;11798;51.528;7.240;2022-10-20T04:03:55;7.40;99.90
23259;DHT22;11798;51.528;7.240;2022-10-20T04:06:20;7.50;99.90
23259;DHT22;11798;51.528;7.240;2022-10-20T04:08:46;7.50;99.90
23259;DHT22;11798;51.528;7.240;2022-10-20T04:11:12;7.50;99.90
23259;DHT22;11798;51.528;7.240;2022-10-20T04:13:37;7.50;99.90
23259;DHT22;11798;51.528;7.240;2022-10-20T04:16:03;7.50;99.90
23259;DHT22;11798;51.528;7.240;2022-10-20T04:18:29;7.50;99.90
23259;DHT22;11798;51.528;7.240;2022-10-20T04:20:55;7.50;99.90
23259;DHT22;11798;51.528;7.240;2022-10-20T04:23:21;7.40;99.90
23259;DHT22;11798;51.528;7.240;2022-10-20T04:25:46;7.40;99.90
23259;DHT22;11798;51.528;7.240;2022-10-20T04:28:17;7.40;99.90
23259;DHT22;11798;51.528;7.240;2022-10-20T04:30:43;7.40;99.90
23259;DHT22;11798;51.528;7.240;2022-10-20T04:33:11;7.40;99.90
23259;DHT22;11798;51.528;7.240;2022-10-20T04:35:36;7.40;99.90
23259;DHT22;11798;51.528;7.240;2022-10-20T04:38:02;7.40;99.90
23259;DHT22;11798;51.528;7.240;2022-10-20T04:40:28;7.40;99.90
23259;DHT22;11798;51.528;7.240;2022-10-20T04:42:53;7.50;99.90
23259;DHT22;11798;51.528;7.240;2022-10-20T04:45:19;7.50;99.90
23259;DHT22;11798;51.528;7.240;2022-10-20T04:47:44;7.50;99.90
23259;DHT22;11798;51.528;7.240;2022-10-20T04:50:10;7.50;99.90
23259;DHT22;11798;51.528;7.240;2022-10-20T04:52:35;7.60;99.90
23259;DHT22;11798;51.528;7.240;2022-10-20T04:55:01;7.60;99.90
23259;DHT22;11798;51.528;7.240;2022-10-20T04:57:27;7.60;99.90
23259;DHT22;11798;51.528;7.240;2022-10-20T04:59:53;7.60;99.90
23259;DHT22;11798;51.528;7.240;2022-10-20T05:02:18;7.60;99.90
23259;DHT22;11798;51.528;7.240;2022-10-20T05:04:44;7.60;99.90
23259;DHT22;11798;51.528;7.240;2022-10-20T05:07:10;7.60;99.90
23259;DHT22;11798;51.528;7.240;2022-10-20T05:09:36;7.70;99.90
23259;DHT22;11798;51.528;7.240;2022-10-20T05:12:01;7.70;99.90
23259;DHT22;11798;51.528;7.240;2022-10-20T05:14:27;7.70;99.90
23259;DHT22;11798;51.528;7.240;2022-10-20T05:16:53;7.70;99.90
23259;DHT22;11798;51.528;7.240;2022-10-20T05:19:18;7.70;99.90
23259;DHT22;11798;51.528;7.240;2022-10-20T05:21:44;7.70;99.90
23259;DHT22;11798;51.528;7.240;2022-10-20T05:24:15;7.60;99.90
23259;DHT22;11798;51.528;7.240;2022-10-20T05:26:41;7.60;99.90
23259;DHT22;11798;51.528;7.240;2022-10-20T05:29:08;7.70;99.90
23259;DHT22;11798;51.528;7.240;2022-10-20T05:31:41;7.70;99.90
23259;DHT22;11798;51.528;7.240;2022-10-20T05:34:08;7.70;99.90
23259;DHT22;11798;51.528;7.240;2022-10-20T05:36:34;7.70;99.90
23259;DHT22;11798;51.528;7.240;2022-10-20T05:39:00;7.70;99.90
23259;DHT22;11798;51.528;7.240;2022-10-20T05:41:30;7.70;99.90
23259;DHT22;11798;51.528;7.240;2022-10-20T05:44:01;7.80;99.90
23259;DHT22;11798;51.528;7.240;2022-10-20T05:46:31;7.90;99.90
23259;DHT22;11798;51.528;7.240;2022-10-20T05:48:58;7.90;99.90
23259;DHT22;11798;51.528;7.240;2022-10-20T05:51:27;7.90;99.90
23259;DHT22;11798;51.528;7.240;2022-10-20T05:53:55;7.80;99.90
23259;DHT22;11798;51.528;7.240;2022-10-20T05:56:21;7.80;99.90
23259;DHT22;11798;51.528;7.240;2022-10-20T05:58:47;7.80;99.90
23259;DHT22;11798;51.528;7.240;2022-10-20T06:01:19;7.90;99.90
23259;DHT22;11798;51.528;7.240;2022-10-20T06:03:49;7.90;99.90
23259;DHT22;11798;51.528;7.240;2022-10-20T06:06:15;8.00;99.90
23259;DHT22;11798;51.528;7.240;2022-10-20T06:08:41;7.90;99.90
23259;DHT22;11798;51.528;7.240;2022-10-20T06:11:09;7.90;99.90
23259;DHT22;11798;51.528;7.240;2022-10-20T06:13:35;8.00;99.90
23259;DHT22;11798;51.528;7.240;2022-10-20T06:16:08;8.00;99.90
23259;DHT22;11798;51.528;7.240;2022-10-20T06:18:35;8.00;99.90
23259;DHT22;11798;51.528;7.240;2022-10-20T06:21:05;8.00;99.90
23259;DHT22;11798;51.528;7.240;2022-10-20T06:23:31;8.00;99.90
23259;DHT22;11798;51.528;7.240;2022-10-20T06:26:05;8.10;99.90
23259;DHT22;11798;51.528;7.240;2022-10-20T06:28:32;8.10;99.90
23259;DHT22;11798;51.528;7.240;2022-10-20T06:30:58;8.10;99.90
23259;DHT22;11798;51.528;7.240;2022-10-20T06:33:24;8.10;99.90
23259;DHT22;11798;51.528;7.240;2022-10-20T06:35:50;8.10;99.90
23259;DHT22;11798;51.528;7.240;2022-10-20T06:38:16;8.10;99.90
23259;DHT22;11798;51.528;7.240;2022-10-20T06:40:41;8.20;99.90
23259;DHT22;11798;51.528;7.240;2022-10-20T06:43:07;8.20;99.90
23259;DHT22;11798;51.528;7.240;2022-10-20T06:45:32;8.30;99.90
23259;DHT22;11798;51.528;7.240;2022-10-20T06:47:58;8.30;99.90
23259;DHT22;11798;51.528;7.240;2022-10-20T06:50:23;8.30;99.90
23259;DHT22;11798;51.528;7.240;2022-10-20T06:52:49;8.30;99.90
23259;DHT22;11798;51.528;7.240;2022-10-20T06:55:15;8.30;99.90
23259;DHT22;11798;51.528;7.240;2022-10-20T06:57:40;8.30;99.90
23259;DHT22;11798;51.528;7.240;2022-10-20T07:00:07;8.30;99.90
23259;DHT22;11798;51.528;7.240;2022-10-20T07:02:33;8.30;99.90
23259;DHT22;11798;51.528;7.240;2022-10-20T07:04:58;8.40;99.90
23259;DHT22;11798;51.528;7.240;2022-10-20T07:07:24;8.50;99.90
23259;DHT22;11798;51.528;7.240;2022-10-20T07:09:49;8.50;99.90
23259;DHT22;11798;51.528;7.240;2022-10-20T07:12:15;8.60;99.90
23259;DHT22;11798;51.528;7.240;2022-10-20T07:14:40;8.70;99.90
23259;DHT22;11798;51.528;7.240;2022-10-20T07:17:06;8.60;99.90
23259;DHT22;11798;51.528;7.240;2022-10-20T07:19:32;8.70;99.90
23259;DHT22;11798;51.528;7.240;2022-10-20T07:21:57;8.80;99.90
23259;DHT22;11798;51.528;7.240;2022-10-20T07:24:23;8.80;99.90
23259;DHT22;11798;51.528;7.240;2022-10-20T07:26:48;8.80;99.90
23259;DHT22;11798;51.528;7.240;2022-10-20T07:29:14;8.90;99.90
23259;DHT22;11798;51.528;7.240;2022-10-20T07:31:44;9.00;99.90
23259;DHT22;11798;51.528;7.240;2022-10-20T07:34:12;9.00;99.90
23259;DHT22;11798;51.528;7.240;2022-10-20T07:36:40;8.90;99.90
23259;DHT22;11798;51.528;7.240;2022-10-20T07:39:06;8.90;99.90
23259;DHT22;11798;51.528;7.240;2022-10-20T07:41:32;8.90;99.90
23259;DHT22;11798;51.528;7.240;2022-10-20T07:43:59;9.10;99.90
23259;DHT22;11798;51.528;7.240;2022-10-20T07:46:25;9.10;99.90
23259;DHT22;11798;51.528;7.240;2022-10-20T07:48:50;9.20;99.90
23259;DHT22;11798;51.528;7.240;2022-10-20T07:54:12;9.40;99.90
23259;DHT22;11798;51.528;7.240;2022-10-20T07:56:40;9.50;99.90
23259;DHT22;11798;51.528;7.240;2022-10-20T07:59:07;9.50;99.90
23259;DHT22;11798;51.528;7.240;2022-10-20T08:01:33;9.50;99.90
23259;DHT22;11798;51.528;7.240;2022-10-20T08:03:59;9.70;99.90
23259;DHT22;11798;51.528;7.240;2022-10-20T08:06:25;9.60;99.90
23259;DHT22;11798;51.528;7.240;2022-10-20T08:08:51;9.80;99.90
23259;DHT22;11798;51.528;7.240;2022-10-20T08:11:17;9.90;99.90
23259;DHT22;11798;51.528;7.240;2022-10-20T08:13:42;10.10;99.90
23259;DHT22;11798;51.528;7.240;2022-10-20T08:16:10;10.10;99.90
23259;DHT22;11798;51.528;7.240;2022-10-20T08:18:36;10.20;99.90
23259;DHT22;11798;51.528;7.240;2022-10-20T08:21:11;10.20;99.90
23259;DHT22;11798;51.528;7.240;2022-10-20T08:23:41;10.30;99.90
23259;DHT22;11798;51.528;7.240;2022-10-20T08:26:07;10.40;99.90
23259;DHT22;11798;51.528;7.240;2022-10-20T08:28:33;10.50;99.90
23259;DHT22;11798;51.528;7.240;2022-10-20T08:31:04;10.60;99.90
23259;DHT22;11798;51.528;7.240;2022-10-20T08:33:30;10.70;99.90
23259;DHT22;11798;51.528;7.240;2022-10-20T08:36:01;10.80;99.90
23259;DHT22;11798;51.528;7.240;2022-10-20T08:38:26;10.80;99.90
23259;DHT22;11798;51.528;7.240;2022-10-20T08:40:52;10.90;99.90
23259;DHT22;11798;51.528;7.240;2022-10-20T08:43:18;11.00;99.90
23259;DHT22;11798;51.528;7.240;2022-10-20T08:45:45;11.10;99.90
23259;DHT22;11798;51.528;7.240;2022-10-20T08:48:16;11.10;99.90
23259;DHT22;11798;51.528;7.240;2022-10-20T08:50:44;11.30;99.90
23259;DHT22;11798;51.528;7.240;2022-10-20T08:53:10;11.40;99.90
23259;DHT22;11798;51.528;7.240;2022-10-20T08:55:37;11.50;99.90
23259;DHT22;11798;51.528;7.240;2022-10-20T08:58:05;11.60;99.90
23259;DHT22;11798;51.528;7.240;2022-10-20T09:00:33;11.80;99.90
23259;DHT22;11798;51.528;7.240;2022-10-20T09:03:09;11.90;99.90
23259;DHT22;11798;51.528;7.240;2022-10-20T09:05:40;12.00;99.90
23259;DHT22;11798;51.528;7.240;2022-10-20T09:08:06;12.20;99.90
23259;DHT22;11798;51.528;7.240;2022-10-20T09:10:48;12.30;99.90
23259;DHT22;11798;51.528;7.240;2022-10-20T09:13:27;12.50;99.90
23259;DHT22;11798;51.528;7.240;2022-10-20T09:16:39;12.70;99.90
23259;DHT22;11798;51.528;7.240;2022-10-20T09:18:50;12.90;99.90
23259;DHT22;11798;51.528;7.240;2022-10-20T09:21:20;13.10;99.90
23259;DHT22;11798;51.528;7.240;2022-10-20T09:23:50;13.40;99.90
23259;DHT22;11798;51.528;7.240;2022-10-20T09:26:42;13.50;99.90
23259;DHT22;11798;51.528;7.240;2022-10-20T09:29:22;13.70;99.90
23259;DHT22;11798;51.528;7.240;2022-10-20T09:31:58;13.90;99.90
23259;DHT22;11798;51.528;7.240;2022-10-20T09:34:29;13.90;99.90
23259;DHT22;11798;51.528;7.240;2022-10-20T09:42:19;14.20;99.90
23259;DHT22;11798;51.528;7.240;2022-10-20T09:44:53;14.20;99.90
23259;DHT22;11798;51.528;7.240;2022-10-20T09:47:20;14.30;99.90
23259;DHT22;11798;51.528;7.240;2022-10-20T09:50:00;14.40;99.90
23259;DHT22;11798;51.528;7.240;2022-10-20T09:52:31;14.50;99.90
23259;DHT22;11798;51.528;7.240;2022-10-20T09:57:53;14.60;99.90
23259;DHT22;11798;51.528;7.240;2022-10-20T10:00:33;14.60;99.90
23259;DHT22;11798;51.528;7.240;2022-10-20T10:03:17;14.70;99.90
23259;DHT22;11798;51.528;7.240;2022-10-20T10:05:52;14.70;99.90
23259;DHT22;11798;51.528;7.240;2022-10-20T10:08:20;14.80;99.90
23259;DHT22;11798;51.528;7.240;2022-10-20T10:10:58;14.80;99.90
23259;DHT22;11798;51.528;7.240;2022-10-20T10:13:26;14.90;99.90
23259;DHT22;11798;51.528;7.240;2022-10-20T10:16:03;14.90;99.90
23259;DHT22;11798;51.528;7.240;2022-10-20T10:18:29;15.00;99.90
23259;DHT22;11798;51.528;7.240;2022-10-20T10:23:30;15.10;99.90
23259;DHT22;11798;51.528;7.240;2022-10-20T10:25:58;15.10;99.90
23259;DHT22;11798;51.528;7.240;2022-10-20T10:28:38;15.10;99.90
23259;DHT22;11798;51.528;7.240;2022-10-20T10:31:17;15.10;99.90
23259;DHT22;11798;51.528;7.240;2022-10-20T10:33:44;15.10;99.90
23259;DHT22;11798;51.528;7.240;2022-10-20T10:36:33;15.10;99.90
23259;DHT22;11798;51.528;7.240;2022-10-20T10:39:00;15.10;99.90
23259;DHT22;11798;51.528;7.240;2022-10-20T10:41:53;15.00;99.90
23259;DHT22;11798;51.528;7.240;2022-10-20T10:44:49;15.00;99.90
23259;DHT22;11798;51.528;7.240;2022-10-20T10:58:57;15.00;99.90
23259;DHT22;11798;51.528;7.240;2022-10-20T11:09:54;15.20;99.90
23259;DHT22;11798;51.528;7.240;2022-10-20T11:23:48;15.20;99.90
23259;DHT22;11798;51.528;7.240;2022-10-20T11:29:07;15.40;99.90
23259;DHT22;11798;51.528;7.240;2022-10-20T11:34:27;15.30;99.90
23259;DHT22;11798;51.528;7.240;2022-10-20T12:01:26;15.20;99.90
23259;DHT22;11798;51.528;7.240;2022-10-20T12:12:06;15.00;99.90
23259;DHT22;11798;51.528;7.240;2022-10-20T12:14:42;15.00;99.90
23259;DHT22;11798;51.528;7.240;2022-10-20T12:19:50;14.90;99.90
23259;DHT22;11798;51.528;7.240;2022-10-20T12:27:22;14.80;99.90
23259;DHT22;11798;51.528;7.240;2022-10-20T12:29:50;14.80;99.90
23259;DHT22;11798;51.528;7.240;2022-10-20T12:35:00;14.70;99.90
23259;DHT22;11798;51.528;7.240;2022-10-20T12:39:55;14.60;99.90
23259;DHT22;11798;51.528;7.240;2022-10-20T12:42:47;14.60;99.90
23259;DHT22;11798;51.528;7.240;2022-10-20T12:48:05;14.50;99.90
23259;DHT22;11798;51.528;7.240;2022-10-20T12:50:35;14.60;99.90
23259;DHT22;11798;51.528;7.240;2022-10-20T12:55:39;14.60;99.90
23259;DHT22;11798;51.528;7.240;2022-10-20T13:05:55;14.50;99.90
23259;DHT22;11798;51.528;7.240;2022-10-20T13:08:23;14.50;99.90
23259;DHT22;11798;51.528;7.240;2022-10-20T13:10:49;14.50;99.90
23259;DHT22;11798;51.528;7.240;2022-10-20T13:15:45;14.60;99.90
23259;DHT22;11798;51.528;7.240;2022-10-20T13:18:27;14.50;99.90
23259;DHT22;11798;51.528;7.240;2022-10-20T13:21:28;14.60;99.90
23259;DHT22;11798;51.528;7.240;2022-10-20T13:24:11;14.70;99.90
23259;DHT22;11798;51.528;7.240;2022-10-20T13:26:48;14.80;99.90
23259;DHT22;11798;51.528;7.240;2022-10-20T13:29:26;14.90;99.90
23259;DHT22;11798;51.528;7.240;2022-10-20T13:44:00;14.90;99.90
23259;DHT22;11798;51.528;7.240;2022-10-20T13:46:43;14.90;99.90
23259;DHT22;11798;51.528;7.240;2022-10-20T13:52:23;15.00;99.90
23259;DHT22;11798;51.528;7.240;2022-10-20T13:54:50;15.10;99.90
23259;DHT22;11798;51.528;7.240;2022-10-20T13:57:36;15.10;99.90
23259;DHT22;11798;51.528;7.240;2022-10-20T14:00:28;15.30;99.90
23259;DHT22;11798;51.528;7.240;2022-10-20T14:05:24;15.30;99.90
23259;DHT22;11798;51.528;7.240;2022-10-20T14:07:50;15.40;99.90
23259;DHT22;11798;51.528;7.240;2022-10-20T14:13:09;15.40;99.90
23259;DHT22;11798;51.528;7.240;2022-10-20T14:15:36;15.50;99.90
23259;DHT22;11798;51.528;7.240;2022-10-20T14:18:05;15.50;99.90
23259;DHT22;11798;51.528;7.240;2022-10-20T14:20:33;15.50;99.90
23259;DHT22;11798;51.528;7.240;2022-10-20T14:23:02;15.40;99.90
23259;DHT22;11798;51.528;7.240;2022-10-20T14:25:29;15.50;99.90
23259;DHT22;11798;51.528;7.240;2022-10-20T14:27:56;15.50;99.90
23259;DHT22;11798;51.528;7.240;2022-10-20T14:30:23;15.50;99.90
23259;DHT22;11798;51.528;7.240;2022-10-20T14:32:49;15.50;99.90
23259;DHT22;11798;51.528;7.240;2022-10-20T14:35:36;15.50;99.90
23259;DHT22;11798;51.528;7.240;2022-10-20T14:38:27;15.60;99.90
23259;DHT22;11798;51.528;7.240;2022-10-20T14:40:56;15.70;99.90
23259;DHT22;11798;51.528;7.240;2022-10-20T14:46:07;15.80;99.90
23259;DHT22;11798;51.528;7.240;2022-10-20T14:48:42;15.80;99.90
23259;DHT22;11798;51.528;7.240;2022-10-20T14:51:29;15.80;99.90
23259;DHT22;11798;51.528;7.240;2022-10-20T14:59:20;15.80;99.90
23259;DHT22;11798;51.528;7.240;2022-10-20T15:02:18;15.80;99.90
23259;DHT22;11798;51.528;7.240;2022-10-20T15:04:46;15.70;99.90
23259;DHT22;11798;51.528;7.240;2022-10-20T15:09:50;15.70;99.90
23259;DHT22;11798;51.528;7.240;2022-10-20T15:17:46;15.70;99.90
23259;DHT22;11798;51.528;7.240;2022-10-20T15:23:18;15.60;99.90
23259;DHT22;11798;51.528;7.240;2022-10-20T15:28:38;15.60;99.90
23259;DHT22;11798;51.528;7.240;2022-10-20T15:31:28;15.60;99.90
23259;DHT22;11798;51.528;7.240;2022-10-20T15:33:53;15.50;99.90
23259;DHT22;11798;51.528;7.240;2022-10-20T15:36:29;15.50;99.90
23259;DHT22;11798;51.528;7.240;2022-10-20T15:39:00;15.40;99.90
23259;DHT22;11798;51.528;7.240;2022-10-20T15:41:28;15.50;99.90
23259;DHT22;11798;51.528;7.240;2022-10-20T15:43:55;15.40;99.90
23259;DHT22;11798;51.528;7.240;2022-10-20T15:46:20;15.40;99.90
23259;DHT22;11798;51.528;7.240;2022-10-20T15:48:47;15.30;99.90
23259;DHT22;11798;51.528;7.240;2022-10-20T15:53:44;15.30;99.90
23259;DHT22;11798;51.528;7.240;2022-10-20T15:56:12;15.30;99.90
23259;DHT22;11798;51.528;7.240;2022-10-20T15:58:38;15.30;99.90
23259;DHT22;11798;51.528;7.240;2022-10-20T16:01:04;15.30;99.90
23259;DHT22;11798;51.528;7.240;2022-10-20T16:03:29;15.20;99.90
23259;DHT22;11798;51.528;7.240;2022-10-20T16:05:55;15.20;99.90
23259;DHT22;11798;51.528;7.240;2022-10-20T16:08:20;15.20;99.90
23259;DHT22;11798;51.528;7.240;2022-10-20T16:10:46;15.10;99.90
23259;DHT22;11798;51.528;7.240;2022-10-20T16:13:11;15.10;99.90
23259;DHT22;11798;51.528;7.240;2022-10-20T16:15:37;15.00;99.90
23259;DHT22;11798;51.528;7.240;2022-10-20T16:18:03;15.00;99.90
23259;DHT22;11798;51.528;7.240;2022-10-20T16:20:28;15.00;99.90
23259;DHT22;11798;51.528;7.240;2022-10-20T16:22:54;14.90;99.90
23259;DHT22;11798;51.528;7.240;2022-10-20T16:25:20;14.90;99.90
23259;DHT22;11798;51.528;7.240;2022-10-20T16:27:45;14.80;99.90
23259;DHT22;11798;51.528;7.240;2022-10-20T16:30:11;14.80;99.90
23259;DHT22;11798;51.528;7.240;2022-10-20T16:32:37;14.70;99.90
23259;DHT22;11798;51.528;7.240;2022-10-20T16:35:04;14.60;99.90
23259;DHT22;11798;51.528;7.240;2022-10-20T16:37:31;14.60;99.90
23259;DHT22;11798;51.528;7.240;2022-10-20T16:39:57;14.60;99.90
23259;DHT22;11798;51.528;7.240;2022-10-20T16:42:23;14.60;99.90
23259;DHT22;11798;51.528;7.240;2022-10-20T16:44:48;14.50;99.90
23259;DHT22;11798;51.528;7.240;2022-10-20T16:47:14;14.50;99.90
23259;DHT22;11798;51.528;7.240;2022-10-20T16:49:39;14.40;99.90
23259;DHT22;11798;51.528;7.240;2022-10-20T16:52:05;14.50;99.90
23259;DHT22;11798;51.528;7.240;2022-10-20T16:54:31;14.40;99.90
23259;DHT22;11798;51.528;7.240;2022-10-20T16:56:56;14.40;99.90
23259;DHT22;11798;51.528;7.240;2022-10-20T16:59:22;14.40;99.90
23259;DHT22;11798;51.528;7.240;2022-10-20T17:01:48;14.40;99.90
23259;DHT22;11798;51.528;7.240;2022-10-20T17:04:13;14.30;99.90
23259;DHT22;11798;51.528;7.240;2022-10-20T17:06:39;14.30;99.90
23259;DHT22;11798;51.528;7.240;2022-10-20T17:09:04;14.30;99.90
23259;DHT22;11798;51.528;7.240;2022-10-20T17:11:31;14.30;99.90
23259;DHT22;11798;51.528;7.240;2022-10-20T17:13:57;14.20;99.90
23259;DHT22;11798;51.528;7.240;2022-10-20T17:18:54;14.20;99.90
23259;DHT22;11798;51.528;7.240;2022-10-20T17:21:19;14.20;99.90
23259;DHT22;11798;51.528;7.240;2022-10-20T17:23:45;14.20;99.90
23259;DHT22;11798;51.528;7.240;2022-10-20T17:26:14;14.20;99.90
23259;DHT22;11798;51.528;7.240;2022-10-20T17:28:40;14.20;99.90
23259;DHT22;11798;51.528;7.240;2022-10-20T17:31:07;14.20;99.90
23259;DHT22;11798;51.528;7.240;2022-10-20T17:33:33;14.20;99.90
23259;DHT22;11798;51.528;7.240;2022-10-20T17:36:00;14.20;99.90
23259;DHT22;11798;51.528;7.240;2022-10-20T17:38:27;14.20;99.90
23259;DHT22;11798;51.528;7.240;2022-10-20T17:40:53;14.20;99.90
23259;DHT22;11798;51.528;7.240;2022-10-20T17:43:21;14.20;99.90
23259;DHT22;11798;51.528;7.240;2022-10-20T17:45:58;14.20;99.90
23259;DHT22;11798;51.528;7.240;2022-10-20T17:48:24;14.10;99.90
23259;DHT22;11798;51.528;7.240;2022-10-20T17:51:08;14.20;99.90
23259;DHT22;11798;51.528;7.240;2022-10-20T17:53:37;14.10;99.90
23259;DHT22;11798;51.528;7.240;2022-10-20T17:56:05;14.20;99.90
23259;DHT22;11798;51.528;7.240;2022-10-20T17:58:31;14.20;99.90
23259;DHT22;11798;51.528;7.240;2022-10-20T18:01:16;14.20;99.90
23259;DHT22;11798;51.528;7.240;2022-10-20T18:03:44;14.20;99.90
23259;DHT22;11798;51.528;7.240;2022-10-20T18:06:12;14.10;99.90
23259;DHT22;11798;51.528;7.240;2022-10-20T18:08:39;14.20;99.90
23259;DHT22;11798;51.528;7.240;2022-10-20T18:11:31;14.10;99.90
23259;DHT22;11798;51.528;7.240;2022-10-20T18:13:57;14.10;99.90
23259;DHT22;11798;51.528;7.240;2022-10-20T18:16:25;14.20;99.90
23259;DHT22;11798;51.528;7.240;2022-10-20T18:18:51;14.20;99.90
23259;DHT22;11798;51.528;7.240;2022-10-20T18:21:18;14.20;99.90
23259;DHT22;11798;51.528;7.240;2022-10-20T18:23:44;14.20;99.90
23259;DHT22;11798;51.528;7.240;2022-10-20T18:26:15;14.20;99.90
23259;DHT22;11798;51.528;7.240;2022-10-20T18:28:42;14.20;99.90
23259;DHT22;11798;51.528;7.240;2022-10-20T18:31:12;14.20;99.90
23259;DHT22;11798;51.528;7.240;2022-10-20T18:33:39;14.20;99.90
23259;DHT22;11798;51.528;7.240;2022-10-20T18:36:08;14.30;99.90
23259;DHT22;11798;51.528;7.240;2022-10-20T18:38:36;14.30;99.90
23259;DHT22;11798;51.528;7.240;2022-10-20T18:41:04;14.30;99.90
23259;DHT22;11798;51.528;7.240;2022-10-20T18:43:30;14.30;99.90
23259;DHT22;11798;51.528;7.240;2022-10-20T18:45:55;14.30;99.90
23259;DHT22;11798;51.528;7.240;2022-10-20T18:48:21;14.20;99.90
23259;DHT22;11798;51.528;7.240;2022-10-20T18:50:57;14.30;99.90